LRCV

Craiova Airport

Airport
ICAO code
LRCV
IATA Code
CRA
Summary
ICAO Region
EUR
ICAO Territory
Location

, Dolj

Serving
Craiova
Elevation
626 ft
Coordinates
44° 19' 5" N , 23° 53' 19" E
Metar
LRCV 151730Z 28007KT CAVOK 25/09 Q1010

Runways

Designator Length Width Surface Rops
9/27 2500 45 CON No/No

Airport map

Aerial View

SKYbrary Partners:

Safety knowledge contributed by: